createdAt,value
2023-05-09T00:00:46.127Z,94585.47
2023-05-09T00:03:12.786Z,94588.56
2023-05-09T00:05:39.391Z,94587.00
2023-05-09T00:08:05.906Z,94578.84
2023-05-09T00:10:32.485Z,94576.16
2023-05-09T00:12:59.768Z,94581.22
2023-05-09T00:15:26.781Z,94575.78
2023-05-09T00:17:54.462Z,94564.47
2023-05-09T00:20:21.757Z,94571.94
2023-05-09T00:22:48.299Z,94571.47
2023-05-09T00:25:14.999Z,94568.31
2023-05-09T00:27:41.763Z,94565.19
2023-05-09T00:30:08.851Z,94562.03
2023-05-09T00:32:35.675Z,94563.59
2023-05-09T00:35:02.399Z,94558.16
2023-05-09T00:37:30.505Z,94553.09
2023-05-09T00:39:57.089Z,94550.69
2023-05-09T00:42:23.644Z,94548.34
2023-05-09T00:44:50.409Z,94543.66
2023-05-09T00:47:17.092Z,94546.00
2023-05-09T00:49:43.730Z,94538.56
2023-05-09T00:52:10.483Z,94535.00
2023-05-09T00:54:38.019Z,94526.00
2023-05-09T00:57:04.742Z,94529.53
2023-05-09T00:59:31.321Z,94524.50
2023-05-09T01:01:58.048Z,94521.28
2023-05-09T01:04:24.728Z,94526.00
2023-05-09T01:07:13.826Z,94524.03
2023-05-09T01:09:55.412Z,94524.47
2023-05-09T01:12:29.270Z,94516.53
2023-05-09T01:15:23.637Z,94517.28
2023-05-09T01:17:58.305Z,94516.56
2023-05-09T01:20:39.359Z,94511.56
2023-05-09T01:23:23.842Z,94511.59
2023-05-09T01:26:04.433Z,94521.06
2023-05-09T01:28:54.673Z,94510.47
2023-05-09T01:31:21.481Z,94512.44
2023-05-09T01:33:53.643Z,94508.81
2023-05-09T01:36:21.532Z,94506.78
2023-05-09T01:38:52.563Z,94505.22
2023-05-09T01:41:20.844Z,94512.69
2023-05-09T01:43:50.355Z,94510.00
2023-05-09T01:46:19.395Z,94503.66
2023-05-09T01:48:46.746Z,94503.38
2023-05-09T01:51:14.239Z,94501.00
2023-05-09T01:53:42.098Z,94509.97
2023-05-09T01:56:10.869Z,94507.63
2023-05-09T01:58:40.216Z,94506.44
2023-05-09T02:01:07.141Z,94493.09
2023-05-09T02:03:34.644Z,94500.22
2023-05-09T02:06:04.632Z,94494.72
2023-05-09T02:08:32.771Z,94495.03
2023-05-09T02:11:00.307Z,94485.59
2023-05-09T02:13:26.944Z,94488.38
2023-05-09T02:15:55.157Z,94492.00
2023-05-09T02:18:21.848Z,94494.78
2023-05-09T02:20:48.742Z,94488.03
2023-05-09T02:23:15.601Z,94486.78
2023-05-09T02:25:42.624Z,94487.91
2023-05-09T02:28:10.454Z,94482.81
2023-05-09T02:30:41.944Z,94473.00
2023-05-09T02:33:11.767Z,94477.31
2023-05-09T02:35:41.830Z,94476.22
2023-05-09T02:38:08.662Z,94471.19
2023-05-09T02:40:35.595Z,94468.84
2023-05-09T02:43:02.150Z,94472.03
2023-05-09T02:45:28.740Z,94463.75
2023-05-09T02:47:56.010Z,94471.25
2023-05-09T02:50:22.892Z,94474.47
2023-05-09T02:52:49.415Z,94469.00
2023-05-09T02:55:16.318Z,94473.66
2023-05-09T02:57:43.944Z,94474.88
2023-05-09T03:00:11.351Z,94470.22
2023-05-09T03:02:39.483Z,94462.72
2023-05-09T03:05:10.455Z,94467.28
2023-05-09T03:07:37.207Z,94462.91
2023-05-09T03:10:04.360Z,94463.69
2023-05-09T03:12:31.547Z,94456.97
2023-05-09T03:14:58.384Z,94461.72
2023-05-09T03:17:25.028Z,94456.94
2023-05-09T03:19:51.671Z,94455.09
2023-05-09T03:22:18.299Z,94453.94
2023-05-09T03:24:52.912Z,94461.06
2023-05-09T03:27:19.529Z,94451.63
2023-05-09T03:29:47.594Z,94447.69
2023-05-09T03:32:15.379Z,94439.47
2023-05-09T03:34:42.046Z,94445.38
2023-05-09T03:37:08.757Z,94444.19
2023-05-09T03:39:39.102Z,94440.19
2023-05-09T03:42:05.708Z,94440.91
2023-05-09T03:44:32.271Z,94439.34
2023-05-09T03:47:00.144Z,94436.25
2023-05-09T03:49:31.089Z,94433.19
2023-05-09T03:51:57.740Z,94438.66
2023-05-09T03:54:26.266Z,94440.19
2023-05-09T03:56:52.937Z,94445.69
2023-05-09T03:59:19.489Z,94446.88
2023-05-09T04:01:46.419Z,94445.25
2023-05-09T04:04:13.094Z,94440.97
2023-05-09T04:06:40.124Z,94452.72
2023-05-09T04:09:09.458Z,94443.69
2023-05-09T04:11:36.372Z,94448.41
2023-05-09T04:14:07.293Z,94443.28
2023-05-09T04:16:36.030Z,94441.72
2023-05-09T04:19:02.765Z,94449.19
2023-05-09T04:21:29.430Z,94442.47
2023-05-09T04:23:59.306Z,94444.84
2023-05-09T04:26:35.371Z,94440.84
2023-05-09T04:29:02.174Z,94436.13
2023-05-09T04:31:29.057Z,94435.72
2023-05-09T04:33:56.114Z,94440.03
2023-05-09T04:36:22.966Z,94443.59
2023-05-09T04:38:49.569Z,94450.25
2023-05-09T04:41:21.489Z,94450.69
2023-05-09T04:43:48.182Z,94441.34
2023-05-09T04:46:14.916Z,94443.66
2023-05-09T04:48:42.096Z,94437.75
2023-05-09T04:51:08.633Z,94441.63
2023-05-09T04:53:35.197Z,94445.56
2023-05-09T04:56:01.952Z,94441.56
2023-05-09T04:58:31.101Z,94439.63
2023-05-09T05:00:58.332Z,94441.50
2023-05-09T05:03:25.060Z,94433.19
2023-05-09T05:05:51.779Z,94428.50
2023-05-09T05:08:18.538Z,94432.69
2023-05-09T05:10:45.618Z,94432.69
2023-05-09T05:13:14.681Z,94427.03
2023-05-09T05:15:45.059Z,94429.06
2023-05-09T05:18:12.939Z,94424.06
2023-05-09T05:20:43.018Z,94420.88
2023-05-09T05:23:10.506Z,94416.03
2023-05-09T05:25:37.679Z,94410.47
2023-05-09T05:28:05.177Z,94413.44
2023-05-09T05:30:33.965Z,94412.03
2023-05-09T05:33:01.836Z,94412.06
2023-05-09T05:35:29.268Z,94398.25
2023-05-09T05:37:56.785Z,94403.16
2023-05-09T05:40:23.393Z,94404.97
2023-05-09T05:42:51.971Z,94402.16
2023-05-09T05:45:18.653Z,94400.84
2023-05-09T05:47:49.725Z,94400.22
2023-05-09T05:50:17.075Z,94404.03
2023-05-09T05:52:43.712Z,94411.28
2023-05-09T05:55:13.610Z,94404.53
2023-05-09T05:57:40.812Z,94406.16
2023-05-09T06:00:11.252Z,94405.78
2023-05-09T06:02:48.034Z,94401.28
2023-05-09T06:05:22.085Z,94395.97
2023-05-09T06:07:49.947Z,94384.47
2023-05-09T06:10:17.309Z,94373.97
2023-05-09T06:12:45.295Z,94376.38
2023-05-09T06:15:12.593Z,94360.34
2023-05-09T06:17:42.996Z,94366.28
2023-05-09T06:20:09.740Z,94363.75
2023-05-09T06:22:36.279Z,94359.22
2023-05-09T06:25:02.822Z,94366.66
2023-05-09T06:27:29.420Z,94371.31
2023-05-09T06:29:56.010Z,94371.31
2023-05-09T06:32:23.490Z,94369.28
2023-05-09T06:34:50.190Z,94362.69
2023-05-09T06:37:16.720Z,94365.91
2023-05-09T06:39:43.247Z,94360.13
2023-05-09T06:42:09.955Z,94361.81
2023-05-09T06:44:38.888Z,94364.00
2023-05-09T06:47:05.645Z,94364.19
2023-05-09T06:49:32.351Z,94358.25
2023-05-09T06:51:58.902Z,94359.03
2023-05-09T06:54:25.439Z,94350.47
2023-05-09T06:56:51.972Z,94342.97
2023-05-09T06:59:18.594Z,94340.41
2023-05-09T07:01:45.144Z,94341.06
2023-05-09T07:04:11.671Z,94336.69
2023-05-09T07:06:38.209Z,94340.28
2023-05-09T07:09:04.742Z,94336.69
2023-05-09T07:11:37.422Z,94331.19
2023-05-09T07:14:04.223Z,94332.63
2023-05-09T07:16:30.840Z,94325.28
2023-05-09T07:18:57.439Z,94324.84
2023-05-09T07:21:23.960Z,94319.09
2023-05-09T07:23:50.507Z,94310.06
2023-05-09T07:26:17.045Z,94298.34
2023-05-09T07:28:43.572Z,94298.88
2023-05-09T07:31:10.268Z,94301.53
2023-05-09T07:33:36.901Z,94293.53
2023-05-09T07:36:03.550Z,94289.41
2023-05-09T07:38:30.119Z,94288.94
2023-05-09T07:40:56.682Z,94277.56
2023-05-09T07:43:23.275Z,94280.16
2023-05-09T07:45:49.892Z,94281.28
2023-05-09T07:48:16.479Z,94280.25
2023-05-09T07:50:43.075Z,94269.63
2023-05-09T07:53:09.813Z,94264.91
2023-05-09T07:55:36.484Z,94262.06
2023-05-09T07:58:03.033Z,94267.47
2023-05-09T08:00:29.585Z,94268.19
2023-05-09T08:02:56.267Z,94261.75
2023-05-09T08:05:22.952Z,94259.59
2023-05-09T08:07:49.489Z,94253.72
2023-05-09T08:10:16.563Z,94252.13
2023-05-09T08:12:43.212Z,94248.44
2023-05-09T08:15:10.199Z,94245.88
2023-05-09T08:17:36.741Z,94245.66
2023-05-09T08:20:05.555Z,94237.81
2023-05-09T08:22:32.099Z,94233.84
2023-05-09T08:24:58.649Z,94227.34
2023-05-09T08:27:27.739Z,94234.53
2023-05-09T08:29:54.292Z,94216.69
2023-05-09T08:32:20.913Z,94216.69
2023-05-09T08:34:47.468Z,94220.06
2023-05-09T08:37:15.293Z,94209.56
2023-05-09T08:39:42.768Z,94204.94
2023-05-09T08:42:09.926Z,94198.63
2023-05-09T08:44:36.849Z,94199.75
2023-05-09T08:47:04.820Z,94190.41
2023-05-09T08:49:31.715Z,94194.38
2023-05-09T08:51:58.864Z,94191.78
2023-05-09T08:54:25.662Z,94190.97
2023-05-09T08:56:52.257Z,94183.22
2023-05-09T08:59:19.483Z,94182.69
2023-05-09T09:01:46.354Z,94176.28
2023-05-09T09:04:13.049Z,94172.16
2023-05-09T09:06:40.745Z,94170.38
2023-05-09T09:09:11.436Z,94165.72
2023-05-09T09:11:39.014Z,94160.94
2023-05-09T09:14:16.460Z,94153.13
2023-05-09T09:16:45.853Z,94147.72
2023-05-09T09:19:16.508Z,94149.78
2023-05-09T09:21:45.546Z,94150.31
2023-05-09T09:24:21.439Z,94152.50
2023-05-09T09:26:50.363Z,94143.97
2023-05-09T09:29:18.625Z,94145.66
2023-05-09T09:31:46.316Z,94138.06
2023-05-09T09:34:19.105Z,94143.81
2023-05-09T09:36:46.875Z,94138.03
2023-05-09T09:39:14.311Z,94123.47
2023-05-09T09:41:41.501Z,94115.66
2023-05-09T09:44:12.054Z,94116.56
2023-05-09T09:46:42.724Z,94117.06
2023-05-09T09:49:17.158Z,94106.44
2023-05-09T09:51:44.501Z,94109.84
2023-05-09T09:54:12.897Z,94089.81
2023-05-09T09:56:43.904Z,94086.09
2023-05-09T09:59:12.252Z,94091.19
2023-05-09T10:01:57.274Z,94095.06
2023-05-09T10:04:25.005Z,94089.47
2023-05-09T10:06:56.131Z,94088.41
2023-05-09T10:09:26.765Z,94086.53
2023-05-09T10:11:54.684Z,94088.06
2023-05-09T10:14:23.397Z,94087.72
2023-05-09T10:16:52.102Z,94073.66
2023-05-09T10:19:23.624Z,94075.09
2023-05-09T10:22:04.937Z,94071.88
2023-05-09T10:24:35.485Z,94075.59
2023-05-09T10:27:09.584Z,94059.25
2023-05-09T10:29:38.684Z,94058.81
2023-05-09T10:32:39.030Z,94049.06
2023-05-09T10:35:07.552Z,94051.31
2023-05-09T10:37:34.104Z,94046.28
2023-05-09T10:40:04.174Z,94046.75
2023-05-09T10:42:31.324Z,94044.13
2023-05-09T10:44:58.391Z,94043.63
2023-05-09T10:47:29.592Z,94038.28
2023-05-09T10:49:56.110Z,94041.34
2023-05-09T10:52:23.105Z,94046.03
2023-05-09T10:55:03.545Z,94033.91
2023-05-09T10:57:31.460Z,94039.50
2023-05-09T10:59:59.244Z,94044.47
2023-05-09T11:02:33.892Z,94040.03
2023-05-09T11:05:14.553Z,94032.94
2023-05-09T11:07:41.245Z,94023.09
2023-05-09T11:10:09.961Z,94025.69
2023-05-09T11:12:58.062Z,94019.88
2023-05-09T11:15:27.337Z,94020.72
2023-05-09T11:18:12.336Z,94003.13
2023-05-09T11:20:44.558Z,94006.03
2023-05-09T11:23:17.184Z,94006.53
2023-05-09T11:25:46.722Z,94005.91
2023-05-09T11:28:28.233Z,93997.69
2023-05-09T11:31:09.342Z,93993.44
2023-05-09T11:33:37.288Z,93990.28
2023-05-09T11:36:18.515Z,93989.00
2023-05-09T11:38:47.090Z,93983.66
2023-05-09T11:41:14.228Z,93979.88
2023-05-09T11:43:42.778Z,93972.94
2023-05-09T11:46:09.378Z,93968.00
2023-05-09T11:48:39.993Z,93965.34
2023-05-09T11:51:07.536Z,93952.31
2023-05-09T11:53:34.360Z,93945.38
2023-05-09T11:56:04.970Z,93950.19
2023-05-09T11:58:31.739Z,93940.28
2023-05-09T12:00:58.630Z,93938.25
2023-05-09T12:03:25.750Z,93933.44
2023-05-09T12:05:54.644Z,93923.34
2023-05-09T12:08:22.748Z,93928.06
2023-05-09T12:10:49.948Z,93919.41
2023-05-09T12:13:20.662Z,93914.88
2023-05-09T12:15:47.489Z,93918.78
2023-05-09T12:18:14.566Z,93913.75
2023-05-09T12:20:46.026Z,93910.53
2023-05-09T12:23:14.400Z,93909.28
2023-05-09T12:25:55.327Z,93906.97
2023-05-09T12:28:24.088Z,93905.63
2023-05-09T12:30:52.267Z,93903.59
2023-05-09T12:33:19.165Z,93896.50
2023-05-09T12:35:47.382Z,93886.50
2023-05-09T12:38:23.569Z,93887.59
2023-05-09T12:41:03.515Z,93891.00
2023-05-09T12:43:39.386Z,93891.13
2023-05-09T12:46:06.270Z,93886.69
2023-05-09T12:48:38.728Z,93881.88
2023-05-09T12:51:06.261Z,93877.28
2023-05-09T12:53:38.836Z,93878.81
2023-05-09T12:56:21.339Z,93881.25
2023-05-09T12:58:52.384Z,93878.63
2023-05-09T13:01:20.383Z,93863.84
2023-05-09T13:04:01.077Z,93867.69
2023-05-09T13:06:27.619Z,93862.94
2023-05-09T13:09:02.289Z,93856.00
2023-05-09T13:11:29.483Z,93855.53
2023-05-09T13:13:56.114Z,93851.53
2023-05-09T13:16:24.803Z,93848.28
2023-05-09T13:18:51.365Z,93849.97
2023-05-09T13:21:18.049Z,93838.25
2023-05-09T13:23:45.438Z,93842.75
2023-05-09T13:26:12.143Z,93840.59
2023-05-09T13:28:38.738Z,93837.66
2023-05-09T13:31:05.389Z,93837.50
2023-05-09T13:33:32.106Z,93825.50
2023-05-09T13:35:58.690Z,93819.50
2023-05-09T13:38:25.762Z,93822.84
2023-05-09T13:40:52.306Z,93823.75
2023-05-09T13:43:18.818Z,93817.94
2023-05-09T13:45:45.403Z,93809.41
2023-05-09T13:48:12.107Z,93808.41
2023-05-09T13:50:38.678Z,93801.28
2023-05-09T13:53:05.175Z,93803.25
2023-05-09T13:55:31.771Z,93800.34
2023-05-09T13:57:58.329Z,93805.47
2023-05-09T14:00:26.563Z,93798.97
2023-05-09T14:02:53.187Z,93811.00
2023-05-09T14:05:19.838Z,93798.06
2023-05-09T14:07:46.430Z,93801.75
2023-05-09T14:10:12.987Z,93800.53
2023-05-09T14:12:40.412Z,93800.22
2023-05-09T14:15:08.275Z,93800.50
2023-05-09T14:17:35.095Z,93799.38
2023-05-09T14:20:01.770Z,93792.03
2023-05-09T14:22:28.336Z,93806.59
2023-05-09T14:24:57.258Z,93797.59
2023-05-09T14:27:24.166Z,93784.63
2023-05-09T14:29:50.767Z,93776.09
2023-05-09T14:32:17.450Z,93783.09
2023-05-09T14:34:44.157Z,93782.19
2023-05-09T14:37:14.160Z,93780.97
2023-05-09T14:39:42.487Z,93780.19
2023-05-09T14:42:11.472Z,93786.63
2023-05-09T14:44:39.013Z,93782.16
2023-05-09T14:47:06.117Z,93779.03
2023-05-09T14:49:32.883Z,93772.09
2023-05-09T14:51:59.594Z,93763.22
2023-05-09T14:54:26.116Z,93762.72
2023-05-09T14:56:54.060Z,93760.91
2023-05-09T14:59:21.058Z,93760.06
2023-05-09T15:01:47.593Z,93766.00
2023-05-09T15:04:14.141Z,93763.16
2023-05-09T15:06:41.140Z,93762.44
2023-05-09T15:09:08.366Z,93760.59
2023-05-09T15:11:46.955Z,93754.69
2023-05-09T15:14:14.875Z,93753.28
2023-05-09T15:16:41.544Z,93758.66
2023-05-09T15:19:08.357Z,93757.75
2023-05-09T15:21:35.101Z,93748.44
2023-05-09T15:24:02.376Z,93755.66
2023-05-09T15:26:29.282Z,93749.84
2023-05-09T15:28:55.911Z,93745.03
2023-05-09T15:31:24.028Z,93757.41
2023-05-09T15:33:50.885Z,93746.47
2023-05-09T15:36:17.459Z,93755.78
2023-05-09T15:38:48.306Z,93770.09
2023-05-09T15:41:15.715Z,93783.50
2023-05-09T15:43:42.363Z,93778.09
2023-05-09T15:46:09.026Z,93770.41
2023-05-09T15:48:35.637Z,93762.31
2023-05-09T15:51:02.755Z,93767.13
2023-05-09T15:53:29.632Z,93770.94
2023-05-09T15:55:57.029Z,93764.13
2023-05-09T15:58:23.589Z,93774.41
2023-05-09T16:00:50.274Z,93758.94
2023-05-09T16:03:18.408Z,93760.78
2023-05-09T16:05:45.536Z,93753.91
2023-05-09T16:08:12.894Z,93757.88
2023-05-09T16:10:39.622Z,93758.56
2023-05-09T16:13:07.389Z,93764.28
2023-05-09T16:15:34.059Z,93763.69
2023-05-09T16:18:00.630Z,93760.19
2023-05-09T16:20:27.265Z,93762.63
2023-05-09T16:22:53.839Z,93757.34
2023-05-09T16:25:20.367Z,93765.19
2023-05-09T16:27:46.930Z,93759.81
2023-05-09T16:30:14.464Z,93749.31
2023-05-09T16:32:41.213Z,93753.72
2023-05-09T16:35:08.277Z,93755.81
2023-05-09T16:37:35.652Z,93759.81
2023-05-09T16:40:02.875Z,93759.56
2023-05-09T16:42:30.520Z,93760.97
2023-05-09T16:44:57.345Z,93760.38
2023-05-09T16:47:24.014Z,93757.63
2023-05-09T16:49:50.673Z,93753.25
2023-05-09T16:52:17.203Z,93752.91
2023-05-09T16:54:43.777Z,93747.94
2023-05-09T16:57:10.552Z,93752.38
2023-05-09T16:59:37.301Z,93756.34
2023-05-09T17:02:04.547Z,93748.16
2023-05-09T17:04:35.290Z,93748.50
2023-05-09T17:07:04.186Z,93749.28
2023-05-09T17:09:32.481Z,93748.28
2023-05-09T17:12:00.561Z,93752.31
2023-05-09T17:14:27.352Z,93758.50
2023-05-09T17:16:54.277Z,93752.09
2023-05-09T17:19:23.452Z,93749.31
2023-05-09T17:21:50.286Z,93757.50
2023-05-09T17:24:17.480Z,93751.06
2023-05-09T17:26:44.465Z,93756.13
2023-05-09T17:29:11.431Z,93750.72
2023-05-09T17:31:38.706Z,93754.00
2023-05-09T17:34:05.784Z,93746.59
2023-05-09T17:36:33.868Z,93743.47
2023-05-09T17:39:00.994Z,93743.16
2023-05-09T17:41:27.915Z,93747.72
2023-05-09T17:43:57.447Z,93743.50
2023-05-09T17:46:24.890Z,93744.28
2023-05-09T17:48:51.814Z,93741.88
2023-05-09T17:51:18.885Z,93734.91
2023-05-09T17:53:46.770Z,93730.97
2023-05-09T17:56:13.603Z,93735.25
2023-05-09T17:58:40.456Z,93733.72
2023-05-09T18:01:07.263Z,93731.47
2023-05-09T18:03:34.176Z,93731.75
2023-05-09T18:06:01.937Z,93731.22
2023-05-09T18:08:29.587Z,93734.72
2023-05-09T18:10:57.838Z,93732.41
2023-05-09T18:13:24.751Z,93731.03
2023-05-09T18:15:53.992Z,93736.44
2023-05-09T18:18:21.023Z,93734.81
2023-05-09T18:20:47.873Z,93731.00
2023-05-09T18:23:15.516Z,93732.66
2023-05-09T18:25:42.417Z,93729.31
2023-05-09T18:28:09.347Z,93728.06
2023-05-09T18:30:36.308Z,93723.50
2023-05-09T18:33:03.230Z,93724.28
2023-05-09T18:35:29.952Z,93728.31
2023-05-09T18:37:56.954Z,93731.59
2023-05-09T18:40:23.736Z,93731.22
2023-05-09T18:42:50.639Z,93730.78
2023-05-09T18:45:21.220Z,93733.16
2023-05-09T18:47:47.951Z,93727.81
2023-05-09T18:50:18.785Z,93747.94
2023-05-09T18:52:45.935Z,93744.56
2023-05-09T18:55:14.725Z,93741.38
2023-05-09T18:57:41.250Z,93738.16
2023-05-09T19:00:08.883Z,93733.94
2023-05-09T19:02:35.918Z,93732.09
2023-05-09T19:05:06.361Z,93733.56
2023-05-09T19:07:34.173Z,93730.97
2023-05-09T19:10:01.279Z,93733.38
2023-05-09T19:12:28.762Z,93734.16
2023-05-09T19:14:56.383Z,93726.28
2023-05-09T19:17:23.417Z,93730.22
2023-05-09T19:19:50.100Z,93733.22
2023-05-09T19:22:16.752Z,93731.56
2023-05-09T19:24:43.668Z,93729.44
2023-05-09T19:27:10.688Z,93733.09
2023-05-09T19:29:39.707Z,93724.66
2023-05-09T19:32:07.198Z,93726.28
2023-05-09T19:34:34.319Z,93734.44
2023-05-09T19:37:09.574Z,93735.19
2023-05-09T19:39:36.518Z,93729.28
2023-05-09T19:42:03.174Z,93741.19
2023-05-09T19:44:30.550Z,93734.56
2023-05-09T19:46:58.468Z,93733.03
2023-05-09T19:49:24.974Z,93736.13
2023-05-09T19:51:51.554Z,93732.66
2023-05-09T19:54:18.136Z,93737.03
2023-05-09T19:56:44.865Z,93737.09
2023-05-09T19:59:11.718Z,93737.47
2023-05-09T20:01:42.696Z,93735.91
2023-05-09T20:04:16.630Z,93731.19
2023-05-09T20:06:49.608Z,93728.44
2023-05-09T20:09:24.747Z,93730.88
2023-05-09T20:11:54.202Z,93737.09
2023-05-09T20:14:22.207Z,93728.00
2023-05-09T20:16:48.836Z,93732.72
2023-05-09T20:19:15.615Z,93729.63
2023-05-09T20:21:42.149Z,93728.78
2023-05-09T20:24:08.926Z,93731.03
2023-05-09T20:26:35.532Z,93727.09
2023-05-09T20:29:02.103Z,93720.44
2023-05-09T20:31:29.274Z,93725.97
2023-05-09T20:33:57.399Z,93728.50
2023-05-09T20:36:24.880Z,93719.16
2023-05-09T20:38:51.438Z,93724.13
2023-05-09T20:41:18.003Z,93728.06
2023-05-09T20:43:44.590Z,93721.41
2023-05-09T20:46:11.489Z,93720.56
2023-05-09T20:48:38.053Z,93723.31
2023-05-09T20:51:04.654Z,93729.75
2023-05-09T20:53:32.420Z,93722.72
2023-05-09T20:55:59.943Z,93724.75
2023-05-09T20:58:28.033Z,93727.63
2023-05-09T21:00:54.587Z,93725.03
2023-05-09T21:03:21.242Z,93729.84
2023-05-09T21:05:47.806Z,93735.19
2023-05-09T21:08:14.513Z,93723.91
2023-05-09T21:10:41.202Z,93728.09
2023-05-09T21:13:07.919Z,93733.56
2023-05-09T21:15:34.553Z,93729.69
2023-05-09T21:18:01.189Z,93730.94
2023-05-09T21:20:27.797Z,93731.28
2023-05-09T21:22:54.329Z,93727.41
2023-05-09T21:25:20.961Z,93730.16
2023-05-09T21:27:47.596Z,93734.56
2023-05-09T21:30:15.005Z,93725.03
2023-05-09T21:32:41.801Z,93735.25
2023-05-09T21:35:12.520Z,93726.09
2023-05-09T21:37:39.328Z,93728.09
2023-05-09T21:40:06.595Z,93730.41
2023-05-09T21:42:33.241Z,93729.59
2023-05-09T21:44:59.780Z,93727.59
2023-05-09T21:47:26.659Z,93731.47
2023-05-09T21:49:53.424Z,93730.78
2023-05-09T21:52:19.982Z,93726.03
2023-05-09T21:54:46.551Z,93724.91
2023-05-09T21:57:13.114Z,93723.84
2023-05-09T21:59:39.651Z,93724.28
2023-05-09T22:02:06.218Z,93727.84
2023-05-09T22:04:32.784Z,93728.91
2023-05-09T22:06:59.416Z,93723.00
2023-05-09T22:09:25.957Z,93728.16
2023-05-09T22:11:52.950Z,93728.47
2023-05-09T22:14:19.470Z,93722.53
2023-05-09T22:16:46.081Z,93731.16
2023-05-09T22:19:12.614Z,93739.38
2023-05-09T22:21:39.131Z,93733.69
2023-05-09T22:24:07.529Z,93740.78
2023-05-09T22:26:34.041Z,93737.44
2023-05-09T22:29:00.576Z,93741.63
2023-05-09T22:31:27.354Z,93736.88
2023-05-09T22:33:53.940Z,93736.44
2023-05-09T22:36:20.456Z,93746.19
2023-05-09T22:38:46.995Z,93740.38
2023-05-09T22:41:14.365Z,93750.41
2023-05-09T22:43:41.467Z,93755.16
2023-05-09T22:46:08.120Z,93752.16
2023-05-09T22:48:34.715Z,93744.41
2023-05-09T22:51:02.435Z,93752.34
2023-05-09T22:53:29.002Z,93746.84
2023-05-09T22:55:55.644Z,93760.69
2023-05-09T22:58:22.552Z,93755.97
2023-05-09T23:00:49.202Z,93765.41
2023-05-09T23:03:16.373Z,93761.50
2023-05-09T23:05:43.447Z,93759.50
2023-05-09T23:08:10.076Z,93764.56
2023-05-09T23:10:36.624Z,93764.63
2023-05-09T23:13:04.681Z,93772.53
2023-05-09T23:15:31.329Z,93754.63
2023-05-09T23:17:58.361Z,93755.50
2023-05-09T23:20:25.783Z,93751.91
2023-05-09T23:22:52.346Z,93750.31
2023-05-09T23:25:18.974Z,93749.91
2023-05-09T23:27:46.843Z,93755.88
2023-05-09T23:30:13.816Z,93752.75
2023-05-09T23:32:40.408Z,93760.25
2023-05-09T23:35:07.181Z,93750.88
2023-05-09T23:37:34.056Z,93761.25
2023-05-09T23:40:00.906Z,93755.41
2023-05-09T23:42:27.464Z,93758.59
2023-05-09T23:44:54.087Z,93752.03
2023-05-09T23:47:20.677Z,93760.25
2023-05-09T23:49:47.241Z,93753.63
2023-05-09T23:52:14.558Z,93755.66
2023-05-09T23:54:41.071Z,93749.75
2023-05-09T23:57:07.761Z,93749.09
2023-05-09T23:59:34.379Z,93750.69
